sensor_id;sensor_type;location;lat;lon;timestamp;temperature;humidity
66670;DHT22;53568;52.164;4.472;2024-03-23T00:53:44;10.65;66.49
66670;DHT22;53568;52.164;4.472;2024-03-23T00:56:10;10.59;65.80
66670;DHT22;53568;52.164;4.472;2024-03-23T00:58:35;10.50;65.52
66670;DHT22;53568;52.164;4.472;2024-03-23T01:01:01;10.41;65.26
66670;DHT22;53568;52.164;4.472;2024-03-23T01:03:28;10.32;65.56
66670;DHT22;53568;52.164;4.472;2024-03-23T01:05:54;10.36;65.60
66670;DHT22;53568;52.164;4.472;2024-03-23T01:08:19;10.44;64.79
66670;DHT22;53568;52.164;4.472;2024-03-23T01:10:59;10.21;65.26
66670;DHT22;53568;52.164;4.472;2024-03-23T01:13:25;10.15;65.49
66670;DHT22;53568;52.164;4.472;2024-03-23T01:15:52;10.25;65.37
66670;DHT22;53568;52.164;4.472;2024-03-23T01:18:19;10.21;65.47
66670;DHT22;53568;52.164;4.472;2024-03-23T01:20:45;10.24;65.47
66670;DHT22;53568;52.164;4.472;2024-03-23T01:23:10;10.28;65.58
66670;DHT22;53568;52.164;4.472;2024-03-23T01:25:36;10.32;65.50
66670;DHT22;53568;52.164;4.472;2024-03-23T01:28:02;10.29;65.58
66670;DHT22;53568;52.164;4.472;2024-03-23T01:30:27;10.21;65.63
66670;DHT22;53568;52.164;4.472;2024-03-23T01:32:53;10.15;65.17
66670;DHT22;53568;52.164;4.472;2024-03-23T01:35:19;9.99;65.47
66670;DHT22;53568;52.164;4.472;2024-03-23T01:37:44;9.97;65.47
66670;DHT22;53568;52.164;4.472;2024-03-23T01:40:10;9.82;65.58
66670;DHT22;53568;52.164;4.472;2024-03-23T01:42:36;9.87;65.69
66670;DHT22;53568;52.164;4.472;2024-03-23T01:45:01;9.88;65.52
66670;DHT22;53568;52.164;4.472;2024-03-23T01:47:27;9.88;65.62
66670;DHT22;53568;52.164;4.472;2024-03-23T01:49:53;9.85;65.88
66670;DHT22;53568;52.164;4.472;2024-03-23T01:52:19;9.87;65.59
66670;DHT22;53568;52.164;4.472;2024-03-23T01:54:44;9.84;65.58
66670;DHT22;53568;52.164;4.472;2024-03-23T01:57:10;9.81;65.03
66670;DHT22;53568;52.164;4.472;2024-03-23T01:59:36;9.94;64.87
66670;DHT22;53568;52.164;4.472;2024-03-23T02:02:02;9.85;64.99
66670;DHT22;53568;52.164;4.472;2024-03-23T02:04:27;9.88;64.58
66670;DHT22;53568;52.164;4.472;2024-03-23T02:06:53;9.81;64.88
66670;DHT22;53568;52.164;4.472;2024-03-23T02:09:18;9.80;64.85
66670;DHT22;53568;52.164;4.472;2024-03-23T02:11:43;9.70;64.93
66670;DHT22;53568;52.164;4.472;2024-03-23T02:14:09;9.80;64.75
66670;DHT22;53568;52.164;4.472;2024-03-23T02:16:34;9.80;63.85
66670;DHT22;53568;52.164;4.472;2024-03-23T02:19:00;9.84;63.88
66670;DHT22;53568;52.164;4.472;2024-03-23T02:21:25;9.75;62.89
66670;DHT22;53568;52.164;4.472;2024-03-23T02:23:53;9.77;63.14
66670;DHT22;53568;52.164;4.472;2024-03-23T02:26:18;9.87;62.60
66670;DHT22;53568;52.164;4.472;2024-03-23T02:28:44;9.75;62.64
66670;DHT22;53568;52.164;4.472;2024-03-23T02:31:09;9.80;62.60
66670;DHT22;53568;52.164;4.472;2024-03-23T02:33:35;9.81;62.30
66670;DHT22;53568;52.164;4.472;2024-03-23T02:36:03;9.81;62.36
66670;DHT22;53568;52.164;4.472;2024-03-23T02:38:29;9.84;62.34
66670;DHT22;53568;52.164;4.472;2024-03-23T02:40:54;9.81;62.50
66670;DHT22;53568;52.164;4.472;2024-03-23T02:43:20;9.90;62.41
66670;DHT22;53568;52.164;4.472;2024-03-23T02:45:45;9.91;62.19
66670;DHT22;53568;52.164;4.472;2024-03-23T02:48:11;9.91;61.73
66670;DHT22;53568;52.164;4.472;2024-03-23T02:50:36;9.87;61.72
66670;DHT22;53568;52.164;4.472;2024-03-23T02:53:02;9.92;61.33
66670;DHT22;53568;52.164;4.472;2024-03-23T02:55:27;9.92;61.65
66670;DHT22;53568;52.164;4.472;2024-03-23T02:57:53;9.87;62.20
66670;DHT22;53568;52.164;4.472;2024-03-23T03:00:18;9.88;62.91
66670;DHT22;53568;52.164;4.472;2024-03-23T03:02:44;9.87;63.38
66670;DHT22;53568;52.164;4.472;2024-03-23T03:05:10;9.77;64.32
66670;DHT22;53568;52.164;4.472;2024-03-23T03:07:36;9.75;64.78
66670;DHT22;53568;52.164;4.472;2024-03-23T03:10:04;9.78;64.69
66670;DHT22;53568;52.164;4.472;2024-03-23T03:12:31;9.70;64.99
66670;DHT22;53568;52.164;4.472;2024-03-23T03:14:57;9.58;64.52
66670;DHT22;53568;52.164;4.472;2024-03-23T03:17:22;9.51;64.42
66670;DHT22;53568;52.164;4.472;2024-03-23T03:19:48;9.46;64.58
66670;DHT22;53568;52.164;4.472;2024-03-23T03:22:15;9.44;64.95
66670;DHT22;53568;52.164;4.472;2024-03-23T03:24:41;9.44;65.20
66670;DHT22;53568;52.164;4.472;2024-03-23T03:27:07;9.43;65.28
66670;DHT22;53568;52.164;4.472;2024-03-23T03:29:32;9.43;64.82
66670;DHT22;53568;52.164;4.472;2024-03-23T03:32:02;9.43;64.95
66670;DHT22;53568;52.164;4.472;2024-03-23T03:34:27;9.41;64.83
66670;DHT22;53568;52.164;4.472;2024-03-23T03:36:54;9.40;65.04
66670;DHT22;53568;52.164;4.472;2024-03-23T03:39:19;9.36;65.04
66670;DHT22;53568;52.164;4.472;2024-03-23T03:41:45;9.30;65.36
66670;DHT22;53568;52.164;4.472;2024-03-23T03:44:10;9.31;65.32
66670;DHT22;53568;52.164;4.472;2024-03-23T03:46:36;9.24;65.57
66670;DHT22;53568;52.164;4.472;2024-03-23T03:49:02;9.17;65.71
66670;DHT22;53568;52.164;4.472;2024-03-23T03:51:27;9.27;65.45
66670;DHT22;53568;52.164;4.472;2024-03-23T03:53:53;9.28;65.50
66670;DHT22;53568;52.164;4.472;2024-03-23T03:56:18;9.33;65.35
66670;DHT22;53568;52.164;4.472;2024-03-23T03:58:43;9.31;65.02
66670;DHT22;53568;52.164;4.472;2024-03-23T04:01:09;9.33;65.27
66670;DHT22;53568;52.164;4.472;2024-03-23T04:03:34;9.41;65.61
66670;DHT22;53568;52.164;4.472;2024-03-23T04:06:00;9.43;65.74
66670;DHT22;53568;52.164;4.472;2024-03-23T04:08:25;9.38;65.87
66670;DHT22;53568;52.164;4.472;2024-03-23T04:10:51;9.33;65.60
66670;DHT22;53568;52.164;4.472;2024-03-23T04:13:16;9.27;65.82
66670;DHT22;53568;52.164;4.472;2024-03-23T04:15:42;9.26;66.24
66670;DHT22;53568;52.164;4.472;2024-03-23T04:18:08;9.34;66.30
66670;DHT22;53568;52.164;4.472;2024-03-23T04:20:33;9.36;66.24
66670;DHT22;53568;52.164;4.472;2024-03-23T04:23:00;9.36;65.99
66670;DHT22;53568;52.164;4.472;2024-03-23T04:25:25;9.30;66.23
66670;DHT22;53568;52.164;4.472;2024-03-23T04:27:51;9.34;66.47
66670;DHT22;53568;52.164;4.472;2024-03-23T04:30:16;9.30;66.78
66670;DHT22;53568;52.164;4.472;2024-03-23T04:32:43;9.31;67.02
66670;DHT22;53568;52.164;4.472;2024-03-23T04:35:08;9.28;67.21
66670;DHT22;53568;52.164;4.472;2024-03-23T04:37:38;9.36;67.38
66670;DHT22;53568;52.164;4.472;2024-03-23T04:40:07;9.40;67.53
66670;DHT22;53568;52.164;4.472;2024-03-23T04:42:33;9.41;67.61
66670;DHT22;53568;52.164;4.472;2024-03-23T04:44:59;9.31;67.89
66670;DHT22;53568;52.164;4.472;2024-03-23T04:47:25;9.31;68.14
66670;DHT22;53568;52.164;4.472;2024-03-23T04:49:50;9.27;68.19
66670;DHT22;53568;52.164;4.472;2024-03-23T04:52:16;9.26;68.35
66670;DHT22;53568;52.164;4.472;2024-03-23T04:54:41;9.16;68.31
66670;DHT22;53568;52.164;4.472;2024-03-23T04:57:07;9.20;68.49
66670;DHT22;53568;52.164;4.472;2024-03-23T04:59:33;9.09;68.82
66670;DHT22;53568;52.164;4.472;2024-03-23T05:01:59;9.13;68.71
66670;DHT22;53568;52.164;4.472;2024-03-23T05:04:25;9.16;67.92
66670;DHT22;53568;52.164;4.472;2024-03-23T05:06:50;8.97;67.75
66670;DHT22;53568;52.164;4.472;2024-03-23T05:09:16;9.02;67.58
66670;DHT22;53568;52.164;4.472;2024-03-23T05:11:42;8.96;67.14
66670;DHT22;53568;52.164;4.472;2024-03-23T05:14:07;8.83;67.47
66670;DHT22;53568;52.164;4.472;2024-03-23T05:16:33;8.79;67.93
66670;DHT22;53568;52.164;4.472;2024-03-23T05:18:59;8.90;67.83
66670;DHT22;53568;52.164;4.472;2024-03-23T05:21:24;8.99;67.47
66670;DHT22;53568;52.164;4.472;2024-03-23T05:23:50;9.02;66.57
66670;DHT22;53568;52.164;4.472;2024-03-23T05:26:17;8.97;66.24
66670;DHT22;53568;52.164;4.472;2024-03-23T05:28:42;8.99;67.11
66670;DHT22;53568;52.164;4.472;2024-03-23T05:31:07;8.99;67.91
66670;DHT22;53568;52.164;4.472;2024-03-23T05:33:35;8.82;68.71
66670;DHT22;53568;52.164;4.472;2024-03-23T05:36:02;8.80;68.43
66670;DHT22;53568;52.164;4.472;2024-03-23T05:38:29;8.82;68.39
66670;DHT22;53568;52.164;4.472;2024-03-23T05:40:59;8.89;68.69
66670;DHT22;53568;52.164;4.472;2024-03-23T05:43:25;8.90;68.96
66670;DHT22;53568;52.164;4.472;2024-03-23T05:45:57;8.93;69.00
66670;DHT22;53568;52.164;4.472;2024-03-23T05:48:24;8.92;68.78
66670;DHT22;53568;52.164;4.472;2024-03-23T05:50:50;8.86;68.84
66670;DHT22;53568;52.164;4.472;2024-03-23T05:53:16;8.82;68.69
66670;DHT22;53568;52.164;4.472;2024-03-23T05:55:42;8.87;68.55
66670;DHT22;53568;52.164;4.472;2024-03-23T05:58:08;8.69;69.39
66670;DHT22;53568;52.164;4.472;2024-03-23T06:00:34;8.76;69.76
66670;DHT22;53568;52.164;4.472;2024-03-23T06:03:00;8.82;70.05
66670;DHT22;53568;52.164;4.472;2024-03-23T06:05:25;8.90;69.42
66670;DHT22;53568;52.164;4.472;2024-03-23T06:07:51;8.79;68.79
66670;DHT22;53568;52.164;4.472;2024-03-23T06:10:16;8.73;68.55
66670;DHT22;53568;52.164;4.472;2024-03-23T06:12:42;8.66;68.90
66670;DHT22;53568;52.164;4.472;2024-03-23T06:15:08;8.55;69.00
66670;DHT22;53568;52.164;4.472;2024-03-23T06:17:39;8.53;68.59
66670;DHT22;53568;52.164;4.472;2024-03-23T06:20:05;8.52;68.80
66670;DHT22;53568;52.164;4.472;2024-03-23T06:22:34;8.55;68.80
66670;DHT22;53568;52.164;4.472;2024-03-23T06:24:59;8.51;68.55
66670;DHT22;53568;52.164;4.472;2024-03-23T06:27:25;8.48;68.67
66670;DHT22;53568;52.164;4.472;2024-03-23T06:29:50;8.41;68.58
66670;DHT22;53568;52.164;4.472;2024-03-23T06:32:17;8.37;69.28
66670;DHT22;53568;52.164;4.472;2024-03-23T06:34:42;8.49;69.24
66670;DHT22;53568;52.164;4.472;2024-03-23T06:37:08;8.45;69.06
66670;DHT22;53568;52.164;4.472;2024-03-23T06:39:35;8.52;68.72
66670;DHT22;53568;52.164;4.472;2024-03-23T06:42:02;8.51;69.03
66670;DHT22;53568;52.164;4.472;2024-03-23T06:44:28;8.65;69.05
66670;DHT22;53568;52.164;4.472;2024-03-23T06:46:54;8.69;69.09
66670;DHT22;53568;52.164;4.472;2024-03-23T06:49:20;8.68;68.77
66670;DHT22;53568;52.164;4.472;2024-03-23T06:51:46;8.59;69.13
66670;DHT22;53568;52.164;4.472;2024-03-23T06:54:12;8.71;68.46
66670;DHT22;53568;52.164;4.472;2024-03-23T06:56:37;8.63;67.78
66670;DHT22;53568;52.164;4.472;2024-03-23T06:59:03;8.61;67.57
66670;DHT22;53568;52.164;4.472;2024-03-23T07:01:29;8.53;67.82
66670;DHT22;53568;52.164;4.472;2024-03-23T07:03:55;8.62;68.16
66670;DHT22;53568;52.164;4.472;2024-03-23T07:06:20;8.79;68.04
66670;DHT22;53568;52.164;4.472;2024-03-23T07:08:46;8.62;68.86
66670;DHT22;53568;52.164;4.472;2024-03-23T07:11:12;8.63;68.29
66670;DHT22;53568;52.164;4.472;2024-03-23T07:13:37;8.61;68.04
66670;DHT22;53568;52.164;4.472;2024-03-23T07:16:04;8.49;68.42
66670;DHT22;53568;52.164;4.472;2024-03-23T07:18:30;8.49;68.61
66670;DHT22;53568;52.164;4.472;2024-03-23T07:20:57;8.51;68.42
66670;DHT22;53568;52.164;4.472;2024-03-23T07:23:24;8.46;68.91
66670;DHT22;53568;52.164;4.472;2024-03-23T07:26:07;8.58;68.24
66670;DHT22;53568;52.164;4.472;2024-03-23T07:28:34;8.53;67.58
66670;DHT22;53568;52.164;4.472;2024-03-23T07:31:08;8.59;67.71
66670;DHT22;53568;52.164;4.472;2024-03-23T07:33:35;8.49;67.93
66670;DHT22;53568;52.164;4.472;2024-03-23T07:36:01;8.55;67.82
66670;DHT22;53568;52.164;4.472;2024-03-23T07:38:28;8.56;67.81
66670;DHT22;53568;52.164;4.472;2024-03-23T07:41:10;8.63;67.86
66670;DHT22;53568;52.164;4.472;2024-03-23T07:43:38;8.61;67.25
66670;DHT22;53568;52.164;4.472;2024-03-23T07:46:04;8.83;67.03
66670;DHT22;53568;52.164;4.472;2024-03-23T07:48:30;9.02;67.18
66670;DHT22;53568;52.164;4.472;2024-03-23T07:53:29;8.99;66.00
66670;DHT22;53568;52.164;4.472;2024-03-23T07:55:56;8.87;66.12
66670;DHT22;53568;52.164;4.472;2024-03-23T07:58:22;8.71;66.79
66670;DHT22;53568;52.164;4.472;2024-03-23T08:00:48;8.87;67.54
66670;DHT22;53568;52.164;4.472;2024-03-23T08:03:13;9.03;67.61
66670;DHT22;53568;52.164;4.472;2024-03-23T08:05:39;9.17;66.50
66670;DHT22;53568;52.164;4.472;2024-03-23T08:08:04;9.06;66.15
66670;DHT22;53568;52.164;4.472;2024-03-23T08:10:30;9.00;66.78
66670;DHT22;53568;52.164;4.472;2024-03-23T08:12:55;8.95;67.00
66670;DHT22;53568;52.164;4.472;2024-03-23T08:15:21;8.90;67.29
66670;DHT22;53568;52.164;4.472;2024-03-23T08:17:47;8.87;67.32
66670;DHT22;53568;52.164;4.472;2024-03-23T08:20:12;8.77;66.85
66670;DHT22;53568;52.164;4.472;2024-03-23T08:22:38;8.77;66.53
66670;DHT22;53568;52.164;4.472;2024-03-23T08:25:03;8.89;66.79
66670;DHT22;53568;52.164;4.472;2024-03-23T08:27:29;8.92;66.94
66670;DHT22;53568;52.164;4.472;2024-03-23T08:29:54;9.02;66.85
66670;DHT22;53568;52.164;4.472;2024-03-23T08:32:20;8.89;66.85
66670;DHT22;53568;52.164;4.472;2024-03-23T08:34:45;9.00;66.73
66670;DHT22;53568;52.164;4.472;2024-03-23T08:37:11;8.85;65.68
66670;DHT22;53568;52.164;4.472;2024-03-23T08:39:36;8.97;65.85
66670;DHT22;53568;52.164;4.472;2024-03-23T08:42:02;9.12;66.16
66670;DHT22;53568;52.164;4.472;2024-03-23T08:44:27;9.16;66.74
66670;DHT22;53568;52.164;4.472;2024-03-23T08:46:56;9.12;65.88
66670;DHT22;53568;52.164;4.472;2024-03-23T08:49:21;9.19;65.92
66670;DHT22;53568;52.164;4.472;2024-03-23T08:51:47;9.33;65.24
66670;DHT22;53568;52.164;4.472;2024-03-23T08:54:12;9.23;65.34
66670;DHT22;53568;52.164;4.472;2024-03-23T08:56:38;9.13;66.65
66670;DHT22;53568;52.164;4.472;2024-03-23T08:59:03;9.20;65.44
66670;DHT22;53568;52.164;4.472;2024-03-23T09:01:29;9.30;65.04
66670;DHT22;53568;52.164;4.472;2024-03-23T09:03:54;9.37;64.88
66670;DHT22;53568;52.164;4.472;2024-03-23T09:06:21;9.44;65.00
66670;DHT22;53568;52.164;4.472;2024-03-23T09:08:46;9.48;64.30
66670;DHT22;53568;52.164;4.472;2024-03-23T09:11:13;9.40;63.97
66670;DHT22;53568;52.164;4.472;2024-03-23T09:13:39;9.33;64.46
66670;DHT22;53568;52.164;4.472;2024-03-23T09:16:06;9.31;64.83
66670;DHT22;53568;52.164;4.472;2024-03-23T09:18:33;9.43;64.91
66670;DHT22;53568;52.164;4.472;2024-03-23T09:20:59;9.34;64.25
66670;DHT22;53568;52.164;4.472;2024-03-23T09:23:24;9.38;64.88
66670;DHT22;53568;52.164;4.472;2024-03-23T09:25:50;9.34;64.65
66670;DHT22;53568;52.164;4.472;2024-03-23T09:28:16;9.24;64.49
66670;DHT22;53568;52.164;4.472;2024-03-23T09:30:41;9.20;65.15
66670;DHT22;53568;52.164;4.472;2024-03-23T09:33:10;9.38;65.21
66670;DHT22;53568;52.164;4.472;2024-03-23T09:35:40;9.43;64.51
66670;DHT22;53568;52.164;4.472;2024-03-23T09:38:06;9.34;63.46
66670;DHT22;53568;52.164;4.472;2024-03-23T09:40:41;9.30;64.17
66670;DHT22;53568;52.164;4.472;2024-03-23T09:43:11;9.30;64.92
66670;DHT22;53568;52.164;4.472;2024-03-23T09:45:39;9.23;63.89
66670;DHT22;53568;52.164;4.472;2024-03-23T09:48:07;9.34;64.77
66670;DHT22;53568;52.164;4.472;2024-03-23T09:50:33;9.30;65.59
66670;DHT22;53568;52.164;4.472;2024-03-23T09:52:59;9.26;64.78
66670;DHT22;53568;52.164;4.472;2024-03-23T09:55:24;9.20;65.39
66670;DHT22;53568;52.164;4.472;2024-03-23T09:57:50;9.23;64.99
66670;DHT22;53568;52.164;4.472;2024-03-23T10:00:15;9.30;64.55
66670;DHT22;53568;52.164;4.472;2024-03-23T10:02:41;9.50;64.60
66670;DHT22;53568;52.164;4.472;2024-03-23T10:05:23;9.48;64.01
66670;DHT22;53568;52.164;4.472;2024-03-23T10:07:52;9.37;63.89
66670;DHT22;53568;52.164;4.472;2024-03-23T10:10:18;9.38;63.46
66670;DHT22;53568;52.164;4.472;2024-03-23T10:12:45;9.34;62.79
66670;DHT22;53568;52.164;4.472;2024-03-23T10:15:19;9.30;63.87
66670;DHT22;53568;52.164;4.472;2024-03-23T10:17:45;9.40;63.85
66670;DHT22;53568;52.164;4.472;2024-03-23T10:20:11;9.38;63.60
66670;DHT22;53568;52.164;4.472;2024-03-23T10:22:38;9.28;63.31
66670;DHT22;53568;52.164;4.472;2024-03-23T10:25:09;9.33;62.89
66670;DHT22;53568;52.164;4.472;2024-03-23T10:27:35;9.28;64.90
66670;DHT22;53568;52.164;4.472;2024-03-23T10:30:18;9.36;64.79
66670;DHT22;53568;52.164;4.472;2024-03-23T10:32:45;9.43;64.28
66670;DHT22;53568;52.164;4.472;2024-03-23T10:35:19;9.67;63.99
66670;DHT22;53568;52.164;4.472;2024-03-23T10:37:45;9.80;63.65
66670;DHT22;53568;52.164;4.472;2024-03-23T10:40:15;9.60;63.64
66670;DHT22;53568;52.164;4.472;2024-03-23T10:42:41;9.61;63.43
66670;DHT22;53568;52.164;4.472;2024-03-23T10:45:08;9.69;63.31
66670;DHT22;53568;52.164;4.472;2024-03-23T10:47:36;9.74;63.87
66670;DHT22;53568;52.164;4.472;2024-03-23T10:50:03;9.73;63.77
66670;DHT22;53568;52.164;4.472;2024-03-23T10:52:29;9.57;62.25
66670;DHT22;53568;52.164;4.472;2024-03-23T10:54:57;9.37;61.69
66670;DHT22;53568;52.164;4.472;2024-03-23T10:57:53;9.44;62.33
66670;DHT22;53568;52.164;4.472;2024-03-23T11:00:19;9.43;61.95
66670;DHT22;53568;52.164;4.472;2024-03-23T11:02:47;9.46;62.58
66670;DHT22;53568;52.164;4.472;2024-03-23T11:05:29;9.55;62.87
66670;DHT22;53568;52.164;4.472;2024-03-23T11:07:55;9.54;61.97
66670;DHT22;53568;52.164;4.472;2024-03-23T11:10:28;9.61;62.35
66670;DHT22;53568;52.164;4.472;2024-03-23T11:12:58;9.62;61.67
66670;DHT22;53568;52.164;4.472;2024-03-23T11:15:43;9.81;62.21
66670;DHT22;53568;52.164;4.472;2024-03-23T11:18:09;9.85;61.32
66670;DHT22;53568;52.164;4.472;2024-03-23T11:20:35;9.75;60.81
66670;DHT22;53568;52.164;4.472;2024-03-23T11:23:01;9.78;61.49
66670;DHT22;53568;52.164;4.472;2024-03-23T11:25:28;9.88;61.28
66670;DHT22;53568;52.164;4.472;2024-03-23T11:27:55;9.80;61.48
66670;DHT22;53568;52.164;4.472;2024-03-23T11:30:26;9.61;59.78
66670;DHT22;53568;52.164;4.472;2024-03-23T11:32:55;9.60;60.09
66670;DHT22;53568;52.164;4.472;2024-03-23T11:35:31;9.37;61.75
66670;DHT22;53568;52.164;4.472;2024-03-23T11:38:10;9.62;62.50
66670;DHT22;53568;52.164;4.472;2024-03-23T11:40:44;9.74;62.52
66670;DHT22;53568;52.164;4.472;2024-03-23T11:43:14;9.90;61.72
66670;DHT22;53568;52.164;4.472;2024-03-23T11:45:49;9.90;61.14
66670;DHT22;53568;52.164;4.472;2024-03-23T11:48:22;10.06;60.26
66670;DHT22;53568;52.164;4.472;2024-03-23T11:50:56;10.18;60.93
66670;DHT22;53568;52.164;4.472;2024-03-23T11:53:24;10.25;59.62
66670;DHT22;53568;52.164;4.472;2024-03-23T11:55:57;10.08;59.36
66670;DHT22;53568;52.164;4.472;2024-03-23T11:58:24;10.16;59.86
66670;DHT22;53568;52.164;4.472;2024-03-23T12:01:01;10.19;59.80
66670;DHT22;53568;52.164;4.472;2024-03-23T12:03:31;10.12;59.57
66670;DHT22;53568;52.164;4.472;2024-03-23T12:06:00;10.12;59.67
66670;DHT22;53568;52.164;4.472;2024-03-23T12:08:34;10.14;60.33
66670;DHT22;53568;52.164;4.472;2024-03-23T12:11:11;9.98;58.30
66670;DHT22;53568;52.164;4.472;2024-03-23T12:13:39;9.87;58.50
66670;DHT22;53568;52.164;4.472;2024-03-23T12:16:18;9.88;58.63
66670;DHT22;53568;52.164;4.472;2024-03-23T12:18:48;9.95;59.04
66670;DHT22;53568;52.164;4.472;2024-03-23T12:21:17;9.98;59.85
66670;DHT22;53568;52.164;4.472;2024-03-23T12:23:44;10.05;58.30
66670;DHT22;53568;52.164;4.472;2024-03-23T12:26:11;9.82;58.35
66670;DHT22;53568;52.164;4.472;2024-03-23T12:28:37;9.84;58.56
66670;DHT22;53568;52.164;4.472;2024-03-23T12:31:03;9.91;59.02
66670;DHT22;53568;52.164;4.472;2024-03-23T12:33:29;10.08;60.29
66670;DHT22;53568;52.164;4.472;2024-03-23T12:35:55;10.21;61.46
66670;DHT22;53568;52.164;4.472;2024-03-23T12:38:20;10.26;60.61
66670;DHT22;53568;52.164;4.472;2024-03-23T12:40:46;10.26;60.96
66670;DHT22;53568;52.164;4.472;2024-03-23T12:43:13;10.21;60.40
66670;DHT22;53568;52.164;4.472;2024-03-23T12:45:39;10.31;60.76
66670;DHT22;53568;52.164;4.472;2024-03-23T12:48:05;10.44;60.35
66670;DHT22;53568;52.164;4.472;2024-03-23T12:50:30;10.56;58.66
66670;DHT22;53568;52.164;4.472;2024-03-23T12:52:56;10.46;57.10
66670;DHT22;53568;52.164;4.472;2024-03-23T12:55:21;10.48;56.73
66670;DHT22;53568;52.164;4.472;2024-03-23T12:57:47;10.34;57.16
66670;DHT22;53568;52.164;4.472;2024-03-23T13:00:13;10.31;57.75
66670;DHT22;53568;52.164;4.472;2024-03-23T13:02:41;10.05;58.69
66670;DHT22;53568;52.164;4.472;2024-03-23T13:05:07;10.12;58.05
66670;DHT22;53568;52.164;4.472;2024-03-23T13:07:36;10.25;58.29
66670;DHT22;53568;52.164;4.472;2024-03-23T13:10:03;10.19;58.63
66670;DHT22;53568;52.164;4.472;2024-03-23T13:12:29;10.25;59.67
66670;DHT22;53568;52.164;4.472;2024-03-23T13:14:54;10.38;59.59
66670;DHT22;53568;52.164;4.472;2024-03-23T13:17:20;10.25;59.19
66670;DHT22;53568;52.164;4.472;2024-03-23T13:19:45;10.44;59.39
66670;DHT22;53568;52.164;4.472;2024-03-23T13:22:11;10.48;56.79
66670;DHT22;53568;52.164;4.472;2024-03-23T13:24:37;10.49;55.75
66670;DHT22;53568;52.164;4.472;2024-03-23T13:27:03;10.35;57.27
66670;DHT22;53568;52.164;4.472;2024-03-23T13:29:30;10.48;56.79
66670;DHT22;53568;52.164;4.472;2024-03-23T13:31:56;10.44;56.12
66670;DHT22;53568;52.164;4.472;2024-03-23T13:34:22;10.41;57.84
66670;DHT22;53568;52.164;4.472;2024-03-23T13:36:48;10.55;58.20
66670;DHT22;53568;52.164;4.472;2024-03-23T13:39:15;10.68;57.51
66670;DHT22;53568;52.164;4.472;2024-03-23T13:41:43;10.68;57.51
66670;DHT22;53568;52.164;4.472;2024-03-23T13:44:11;10.75;56.63
66670;DHT22;53568;52.164;4.472;2024-03-23T13:46:37;10.60;54.99
66670;DHT22;53568;52.164;4.472;2024-03-23T13:49:04;10.53;56.75
66670;DHT22;53568;52.164;4.472;2024-03-23T13:51:30;10.50;59.01
66670;DHT22;53568;52.164;4.472;2024-03-23T13:53:56;10.59;60.31
66670;DHT22;53568;52.164;4.472;2024-03-23T13:56:23;10.65;61.20
66670;DHT22;53568;52.164;4.472;2024-03-23T13:58:49;10.76;60.02
66670;DHT22;53568;52.164;4.472;2024-03-23T14:01:15;10.56;56.27
66670;DHT22;53568;52.164;4.472;2024-03-23T14:03:42;10.52;57.33
66670;DHT22;53568;52.164;4.472;2024-03-23T14:06:08;10.44;57.97
66670;DHT22;53568;52.164;4.472;2024-03-23T14:08:37;10.35;59.13
66670;DHT22;53568;52.164;4.472;2024-03-23T14:11:10;10.32;59.50
66670;DHT22;53568;52.164;4.472;2024-03-23T14:13:35;10.50;60.02
66670;DHT22;53568;52.164;4.472;2024-03-23T14:16:01;10.65;59.32
66670;DHT22;53568;52.164;4.472;2024-03-23T14:18:28;10.76;59.11
66670;DHT22;53568;52.164;4.472;2024-03-23T14:20:58;10.90;58.82
66670;DHT22;53568;52.164;4.472;2024-03-23T14:23:29;10.88;58.81
66670;DHT22;53568;52.164;4.472;2024-03-23T14:25:55;10.73;58.64
66670;DHT22;53568;52.164;4.472;2024-03-23T14:28:22;10.73;59.38
66670;DHT22;53568;52.164;4.472;2024-03-23T14:30:49;10.70;59.77
66670;DHT22;53568;52.164;4.472;2024-03-23T14:33:16;10.56;58.75
66670;DHT22;53568;52.164;4.472;2024-03-23T14:35:41;10.41;57.43
66670;DHT22;53568;52.164;4.472;2024-03-23T14:38:07;10.35;58.32
66670;DHT22;53568;52.164;4.472;2024-03-23T14:40:33;10.39;58.75
66670;DHT22;53568;52.164;4.472;2024-03-23T14:42:58;10.31;58.28
66670;DHT22;53568;52.164;4.472;2024-03-23T14:45:24;10.39;58.41
66670;DHT22;53568;52.164;4.472;2024-03-23T14:47:53;10.50;58.97
66670;DHT22;53568;52.164;4.472;2024-03-23T14:50:18;10.66;58.85
66670;DHT22;53568;52.164;4.472;2024-03-23T14:52:45;10.72;59.14
66670;DHT22;53568;52.164;4.472;2024-03-23T14:55:12;10.66;58.65
66670;DHT22;53568;52.164;4.472;2024-03-23T14:57:38;10.68;59.46
66670;DHT22;53568;52.164;4.472;2024-03-23T15:00:07;10.73;60.07
66670;DHT22;53568;52.164;4.472;2024-03-23T15:02:33;10.76;59.85
66670;DHT22;53568;52.164;4.472;2024-03-23T15:04:58;10.60;60.08
66670;DHT22;53568;52.164;4.472;2024-03-23T15:07:24;10.55;60.47
66670;DHT22;53568;52.164;4.472;2024-03-23T15:09:50;10.44;60.83
66670;DHT22;53568;52.164;4.472;2024-03-23T15:12:15;10.35;61.19
66670;DHT22;53568;52.164;4.472;2024-03-23T15:14:41;10.28;61.02
66670;DHT22;53568;52.164;4.472;2024-03-23T15:17:06;10.36;61.20
66670;DHT22;53568;52.164;4.472;2024-03-23T15:19:34;10.42;61.62
66670;DHT22;53568;52.164;4.472;2024-03-23T15:21:59;10.55;61.36
66670;DHT22;53568;52.164;4.472;2024-03-23T15:24:25;10.53;61.80
66670;DHT22;53568;52.164;4.472;2024-03-23T15:26:51;10.48;63.06
66670;DHT22;53568;52.164;4.472;2024-03-23T15:29:17;10.42;64.04
66670;DHT22;53568;52.164;4.472;2024-03-23T15:31:43;10.34;64.49
66670;DHT22;53568;52.164;4.472;2024-03-23T15:34:10;10.06;59.61
66670;DHT22;53568;52.164;4.472;2024-03-23T15:36:37;9.71;60.86
66670;DHT22;53568;52.164;4.472;2024-03-23T15:39:04;9.69;64.21
66670;DHT22;53568;52.164;4.472;2024-03-23T15:41:30;9.85;65.57
66670;DHT22;53568;52.164;4.472;2024-03-23T15:43:56;9.94;66.07
66670;DHT22;53568;52.164;4.472;2024-03-23T15:46:22;10.08;66.09
66670;DHT22;53568;52.164;4.472;2024-03-23T15:48:47;10.12;66.41
66670;DHT22;53568;52.164;4.472;2024-03-23T15:51:14;10.26;66.27
66670;DHT22;53568;52.164;4.472;2024-03-23T15:53:39;10.26;64.90
66670;DHT22;53568;52.164;4.472;2024-03-23T15:56:05;10.32;63.85
66670;DHT22;53568;52.164;4.472;2024-03-23T15:58:32;10.24;62.56
66670;DHT22;53568;52.164;4.472;2024-03-23T16:01:05;10.11;61.94
66670;DHT22;53568;52.164;4.472;2024-03-23T16:03:32;10.19;61.54
66670;DHT22;53568;52.164;4.472;2024-03-23T16:06:03;10.14;61.47
66670;DHT22;53568;52.164;4.472;2024-03-23T16:08:30;10.31;60.43
66670;DHT22;53568;52.164;4.472;2024-03-23T16:11:00;10.35;60.35
66670;DHT22;53568;52.164;4.472;2024-03-23T16:13:26;10.38;60.06
66670;DHT22;53568;52.164;4.472;2024-03-23T16:16:06;10.60;60.64
66670;DHT22;53568;52.164;4.472;2024-03-23T16:18:34;10.58;60.07
66670;DHT22;53568;52.164;4.472;2024-03-23T16:21:01;10.66;59.65
66670;DHT22;53568;52.164;4.472;2024-03-23T16:23:32;10.58;60.35
66670;DHT22;53568;52.164;4.472;2024-03-23T16:25:58;10.25;59.82
66670;DHT22;53568;52.164;4.472;2024-03-23T16:28:35;10.12;60.39
66670;DHT22;53568;52.164;4.472;2024-03-23T16:31:01;10.04;59.55
66670;DHT22;53568;52.164;4.472;2024-03-23T16:33:28;10.01;59.88